This is the latest recevied weather packets stored in our database for station/object N7NIP. If no packets are shown the sender has not sent any weather packets the latest 10 day(s).
| Time | Temp. | Humidity | Pressure | Rain* | Wind** | Luminosity | Snow |
|---|---|---|---|---|---|---|---|
| 1777568043 | 16.67° C | 66% | 1034.9 hPa | 0 mm | - | 626 W/m² | - |
| 1777567740 | 16.11° C | 71% | 1035.1 hPa | 0 mm | - | 645 W/m² | - |
| 1777567436 | 16.67° C | 67% | 1035 hPa | 0 mm | - | 514 W/m² | - |
| 1777567134 | 17.22° C | 65% | 1034.9 hPa | 0 mm | - | 394 W/m² | - |
| 1777566832 | 16.11° C | 66% | 1035.1 hPa | 0 mm | - | 350 W/m² | - |
| 1777566530 | 16.11° C | 67% | 1035 hPa | 0 mm | - | 337 W/m² | - |
| 1777566227 | 16.11° C | 70% | 1035.3 hPa | 0 mm | - | 328 W/m² | - |
| 1777565924 | 15° C | 70% | 1035.1 hPa | 0 mm | - | 335 W/m² | - |
| 1777565619 | 15° C | 71% | 1035.2 hPa | 0 mm | - | 346 W/m² | - |
| 1777565316 | 15.56° C | 71% | 1035.4 hPa | 0 mm | - | 336 W/m² | - |
| 1777565012 | 15.56° C | 75% | 1035.2 hPa | 0 mm | - | 342 W/m² | - |
| 1777564707 | 13.89° C | 79% | 1035.2 hPa | 0 mm | - | 354 W/m² | - |
| 1777564403 | 13.89° C | 80% | 1035.1 hPa | 0 mm | - | 373 W/m² | - |
| 1777564099 | 14.44° C | 76% | 1035.2 hPa | 0 mm | - | 326 W/m² | - |
| 1777563795 | 15° C | 81% | 1035.2 hPa | 0 mm | - | 254 W/m² | - |
| 1777563492 | 13.89° C | 78% | 1035.3 hPa | 0 mm | - | 257 W/m² | - |
| 1777563191 | 12.78° C | 92% | 1035.1 hPa | 0 mm | - | 247 W/m² | - |
| 1777562888 | 12.22° C | 99% | 1035.4 hPa | 0 mm | - | 232 W/m² | - |
| 1777562584 | 11.11° C | 99% | 1035.3 hPa | 0 mm | - | 226 W/m² | - |
| 1777562283 | 10.56° C | 99% | 1035.3 hPa | 0 mm | - | 205 W/m² | - |
| 1777561980 | 10° C | 99% | 1035.5 hPa | 0 mm | - | 177 W/m² | - |
| 1777561677 | 10° C | 99% | 1035.3 hPa | 0 mm | - | 126 W/m² | - |
| 1777561372 | 9.44° C | 99% | 1035.4 hPa | 0 mm | - | 126 W/m² | - |
| 1777561068 | 8.89° C | 99% | 1035.5 hPa | 0 mm | - | 124 W/m² | - |
| 1777560763 | 9.44° C | 99% | 1035.6 hPa | 0 mm | - | 95 W/m² | - |
* Rain latest hour (hover to see other rain measurements)
** Current wind speed in m/s (hover to see current wind gust speed)